Latest Weather Observations for Redesdale

IDV60801

Issued at 3:02 pm EDT Friday 6 March 2015 (issued every 30 minutes, with the page automatically refreshed every 10 minutes)

About weather observations | Map of weather stations | Latest weather observations for VIC | Other Formats
Station Details ID: 088051 Name: REDESDALE Lat: -37.02 Lon: 144.52 Height: 290.0 m
Data from the previous 72 hours. | See also: Recent months at Redesdale
Date/Time
EDT
Temp
°C
App
Temp
°C
Dew
Point
Rel
Hum
%
Delta-T
°C
Wind Press
QNH
hPa
Press
MSL
hPa
Rain
since 9 am
mm
Dir
 
Spd
km/h
Gust
km/h
Spd
kts
Gust
kts
06/03:00pm 20.6 17.3 11.5 56 5.1 WSW 20 35 11 19 - - 0.0
06/02:30pm 20.9 18.0 11.0 53 5.5 WSW 17 28 9 15 - - 0.0
06/02:00pm 22.3 18.1 11.1 49 6.3 SW 24 35 13 19 - - 0.0
06/01:30pm 21.0 17.2 11.1 53 5.5 WSW 22 33 12 18 - - 0.0
06/01:00pm 19.6 15.8 11.1 58 4.7 WSW 22 35 12 19 - - 0.0
06/12:30pm 18.8 15.9 10.9 60 4.3 WSW 17 28 9 15 - - 0.0
06/12:00pm 18.3 14.0 10.9 62 4.1 SW 24 37 13 20 - - 0.0
06/11:30am 17.9 12.5 10.8 63 3.9 SW 30 41 16 22 - - 0.0
06/11:00am 17.6 12.9 10.5 63 3.8 SW 26 43 14 23 - - 0.0
06/10:30am 16.2 13.0 10.1 67 3.3 WSW 17 30 9 16 - - 0.0
06/10:00am 14.9 11.1 9.9 72 2.6 WSW 20 33 11 18 - - 0.0
06/09:30am 14.0 10.2 9.2 73 2.5 WSW 19 32 10 17 - - 0.0
06/09:00am 13.7 11.8 9.0 73 2.4 WSW 9 19 5 10 - - 0.0
06/08:30am 13.1 10.6 8.4 73 2.4 WSW 11 20 6 11 - - 0.0
06/08:00am 12.9 9.9 7.8 71 2.5 WSW 13 20 7 11 - - 0.0
06/07:30am 12.8 10.5 7.5 70 2.6 WSW 9 20 5 11 - - 0.0
06/07:00am 12.6 10.2 7.1 69 2.7 WSW 9 19 5 10 - - 0.0
06/06:30am 12.3 9.9 7.0 70 2.6 W 9 19 5 10 - - 0.0
06/06:00am 12.1 10.2 6.8 70 2.6 W 6 11 3 6 - - 0.0
06/05:30am 12.2 9.0 6.9 70 2.6 WSW 13 20 7 11 - - 0.0
06/05:00am 11.9 9.8 6.6 70 2.6 WSW 7 17 4 9 - - 0.0
06/04:30am 11.9 8.6 6.2 68 2.7 SW 13 26 7 14 - - 0.0
06/04:00am 11.4 9.1 5.9 69 2.6 SW 7 13 4 7 - - 0.0
06/03:30am 11.5 9.2 5.8 68 2.7 WSW 7 22 4 12 - - 0.0
06/03:00am 11.2 8.9 5.5 68 2.7 WSW 7 13 4 7 - - 0.0
06/02:30am 11.6 8.9 5.5 66 2.9 WSW 9 15 5 8 - - 0.0
06/02:00am 11.3 8.5 5.2 66 2.8 WSW 9 15 5 8 - - 0.0
06/01:30am 10.6 8.0 4.3 65 2.9 WSW 7 15 4 8 - - 0.0
06/01:00am 10.9 9.3 4.4 64 3.0 W 2 7 1 4 - - 0.0
06/12:30am 11.4 8.5 4.6 63 3.1 SW 9 17 5 9 - - 0.0
06/12:00am 11.7 8.8 4.7 62 3.2 SW 9 20 5 11 - - 0.0
 
Date/Time
EDT
Temp
°C
App
Temp
°C
Dew
Point
Rel
Hum
%
Delta-T
°C
Wind Press
QNH
hPa
Press
MSL
hPa
Rain
since 9 am
mm
Dir
 
Spd
km/h
Gust
km/h
Spd
kts
Gust
kts
05/11:30pm 12.0 9.1 4.5 60 3.5 WSW 9 19 5 10 - - 0.0
05/11:00pm 12.5 9.1 4.0 56 3.9 SW 11 19 6 10 - - 0.0
05/10:30pm 12.8 9.4 4.0 55 4.0 SSW 11 17 6 9 - - 0.0
05/10:00pm 13.1 10.5 4.0 54 4.2 SW 7 13 4 7 - - 0.0
05/09:30pm 14.3 10.4 3.5 48 5.0 SW 13 22 7 12 - - 0.0
05/09:00pm 14.3 11.4 2.5 45 5.3 SW 7 11 4 6 - - 0.0
05/08:30pm 15.0 11.2 1.9 41 5.9 SW 11 19 6 10 - - 0.0
05/08:00pm 15.5 11.2 1.3 38 6.3 SW 13 19 7 10 - - 0.0
05/07:30pm 16.5 11.1 1.4 36 6.8 SW 19 30 10 16 - - 0.0
05/07:00pm 17.7 12.0 0.8 32 7.6 SW 20 33 11 18 - - 0.0
05/06:30pm 19.1 13.4 0.7 29 8.3 SW 20 32 11 17 - - 0.0
05/06:00pm 20.0 14.5 0.5 27 8.8 SW 19 32 10 17 - - 0.0
05/05:30pm 20.6 14.4 -0.1 25 9.3 SW 22 35 12 19 - - 0.0
05/05:00pm 21.2 15.4 -0.1 24 9.6 SW 20 39 11 21 - - 0.0
05/04:30pm 21.3 15.1 -0.1 24 9.7 SW 22 37 12 20 - - 0.0
05/04:00pm 21.7 14.7 -0.3 23 9.9 SSW 26 37 14 20 - - 0.0
05/03:30pm 21.1 15.5 -0.2 24 9.6 SSW 19 32 10 17 - - 0.0
05/03:00pm 21.3 16.2 0.5 25 9.5 SW 17 28 9 15 - - 0.0
05/02:30pm 20.8 15.8 1.1 27 9.1 SW 17 32 9 17 - - 0.0
05/02:00pm 20.2 13.8 1.1 28 8.8 SW 24 39 13 21 - - 0.0
05/01:30pm 19.9 13.4 0.4 27 8.8 SW 24 41 13 22 - - 0.0
05/01:00pm 19.4 13.0 0.9 29 8.4 SSW 24 35 13 19 - - 0.0
05/12:30pm 18.9 13.2 2.7 34 7.6 SW 22 33 12 18 - - 0.0
05/12:00pm 17.2 9.8 1.6 35 7.1 SSW 30 43 16 23 - - 0.0
05/11:31am 17.0 9.0 1.8 36 6.9 SSW 33 52 18 28 - - 0.0
05/11:30am 17.2 8.8 1.6 35 7.1 SSW 35 52 19 28 - - 0.0
05/11:05am 17.2 9.1 1.2 34 7.2 SSW 33 52 18 28 - - 0.0
05/11:00am 17.1 8.6 1.1 34 7.2 SSW 35 54 19 29 - - 0.0
05/10:35am 16.0 9.1 2.4 40 6.2 SSW 28 46 15 25 - - 0.0
05/10:30am 15.7 8.7 1.8 39 6.2 SSW 28 41 15 22 - - 0.0
05/10:00am 14.8 7.6 1.0 39 6.0 SSW 28 44 15 24 - - 0.0
05/09:30am 13.8 5.9 2.1 45 5.2 SSW 33 48 18 26 - - 0.0
05/09:19am 13.6 6.7 2.5 47 5.0 SSW 28 48 15 26 - - 0.0
05/09:00am 13.0 6.6 3.1 51 4.5 SSW 26 35 14 19 - - 0.0
05/08:30am 11.8 6.8 3.6 57 3.7 SSW 19 28 10 15 - - 0.0
05/08:00am 10.9 7.4 3.5 60 3.3 SSW 11 19 6 10 - - 0.0
05/07:30am 9.8 5.8 2.9 62 3.0 SW 13 19 7 10 - - 0.0
05/07:00am 10.0 6.0 2.8 61 3.1 SSW 13 24 7 13 - - 0.0
05/06:30am 10.0 4.9 2.8 61 3.1 SW 19 39 10 21 - - 0.0
05/06:00am 10.5 4.9 3.3 61 3.2 SSW 22 37 12 20 - - 0.0
05/05:30am 11.1 6.0 3.9 61 3.3 SW 20 33 11 18 - - 0.0
05/05:03am 12.1 5.7 5.0 62 3.3 SSW 28 57 15 31 - - 0.0
05/05:00am 12.2 7.0 5.6 64 3.1 SSW 22 44 12 24 - - 0.0
05/04:30am 13.1 6.8 7.3 68 2.9 SW 30 61 16 33 - - 0.0
05/04:18am 13.7 8.0 8.5 71 2.6 SW 28 46 15 25 - - 0.0
05/04:00am 13.7 10.3 9.2 74 2.3 SW 17 32 9 17 - - 0.0
05/03:30am 13.8 9.7 10.0 78 2.0 SW 22 41 12 22 - - 0.0
05/03:00am 13.8 8.2 10.0 78 2.0 WSW 30 50 16 27 - - 0.0
05/02:48am 15.0 10.8 9.8 71 2.7 WSW 22 52 12 28 - - 0.0
05/02:30am 16.5 14.5 8.5 59 4.1 W 9 22 5 12 - - 0.0
05/02:00am 15.9 14.2 8.4 61 3.9 W 7 13 4 7 - - 0.0
05/01:30am 16.0 14.3 8.2 60 4.0 W 7 13 4 7 - - 0.0
05/01:00am 16.5 14.5 8.7 60 4.1 WSW 9 17 5 9 - - 0.0
05/12:30am 16.0 14.0 8.7 62 3.8 WSW 9 15 5 8 - - 0.0
05/12:00am 16.5 14.5 8.5 59 4.1 W 9 15 5 8 - - 0.0
 
Date/Time
EDT
Temp
°C
App
Temp
°C
Dew
Point
Rel
Hum
%
Delta-T
°C
Wind Press
QNH
hPa
Press
MSL
hPa
Rain
since 9 am
mm
Dir
 
Spd
km/h
Gust
km/h
Spd
kts
Gust
kts
04/11:30pm 16.8 15.1 8.5 58 4.3 W 7 19 4 10 - - 0.0
04/11:00pm 17.4 15.9 8.5 56 4.6 W 6 13 3 7 - - 0.0
04/10:30pm 17.8 16.0 8.1 53 5.0 W 7 15 4 8 - - 0.0
04/10:00pm 18.5 16.4 8.2 51 5.4 W 9 17 5 9 - - 0.0
04/09:30pm 19.0 17.2 7.8 48 5.8 W 7 15 4 8 - - 0.0
04/09:00pm 19.9 17.6 7.3 44 6.5 WNW 9 19 5 10 - - 0.0
04/08:30pm 20.6 17.8 6.9 41 7.1 WNW 11 19 6 10 - - 0.0
04/08:00pm 21.4 18.8 6.1 37 7.8 WNW 9 15 5 8 - - 0.0
04/07:30pm 22.9 19.7 5.3 32 8.9 W 11 20 6 11 - - 0.0
04/07:00pm 23.9 20.6 4.3 28 9.8 W 11 20 6 11 - - 0.0
04/06:30pm 25.0 21.3 4.7 27 10.3 WNW 13 26 7 14 - - 0.0
04/06:00pm 25.8 22.5 4.3 25 10.9 W 11 24 6 13 - - 0.0
04/05:30pm 25.9 22.1 3.8 24 11.1 WNW 13 24 7 13 - - 0.0
04/05:00pm 25.4 21.8 5.1 27 10.4 NW 13 24 7 13 - - 0.0
04/04:30pm 26.2 23.3 6.3 28 10.5 WSW 11 22 6 12 - - 0.0
04/04:00pm 25.8 22.3 5.4 27 10.6 WSW 13 26 7 14 - - 0.0
04/03:30pm 25.5 23.0 6.7 30 9.9 W 9 19 5 10 - - 0.0
04/03:00pm 24.0 21.0 5.8 31 9.4 W 11 20 6 11 - - 0.0
04/02:30pm 24.4 21.0 5.7 30 9.7 W 13 22 7 12 - - 0.0
04/02:00pm 24.3 21.4 4.6 28 10.0 WSW 9 19 5 10 - - 0.0
04/01:30pm 23.8 20.6 5.2 30 9.5 WNW 11 20 6 11 - - 0.0
04/01:00pm 22.9 19.3 2.9 27 9.7 W 11 24 6 13 - - 0.0
04/12:30pm 21.5 19.2 5.8 36 8.0 WSW 7 15 4 8 - - 0.0
04/12:00pm 20.8 18.6 6.4 39 7.4 W 7 15 4 8 - - 0.0
04/11:30am 19.3 16.9 7.1 45 6.3 SSW 9 19 5 10 - - 0.0
04/11:00am 19.0 17.3 7.4 47 6.0 W 6 9 3 5 - - 0.0
04/10:30am 18.0 15.8 7.7 51 5.3 SSW 9 13 5 7 - - 0.0
04/10:00am 17.1 14.9 8.0 55 4.7 SSW 9 17 5 9 - - 0.0
04/09:30am 16.2 13.7 9.6 65 3.5 SSW 13 20 7 11 - - 0.0
04/09:00am 14.4 12.6 11.0 80 1.8 SSW 11 19 6 10 - - 0.0
04/08:30am 12.5 11.7 10.9 90 0.8 SW 6 11 3 6 - - 0.0
04/08:00am 10.4 9.6 9.6 95 0.4 S 4 6 2 3 - - 0.0
04/07:30am 8.7 7.4 7.8 94 0.4 SSW 4 4 2 2 - - 0.0
04/07:00am 9.2 7.4 8.1 93 0.5 SW 7 9 4 5 - - 0.0
04/06:30am 9.9 7.5 8.8 93 0.5 SW 11 13 6 7 - - 0.0
04/06:00am 9.9 8.0 9.0 94 0.5 SSW 9 13 5 7 - - 0.0
04/05:30am 9.2 8.1 8.3 94 0.4 SW 4 9 2 5 - - 0.0
04/05:00am 9.2 8.1 8.4 95 0.4 SSW 4 7 2 4 - - 0.0
04/04:30am 8.4 6.7 7.5 94 0.4 SSW 6 6 3 3 - - 0.0
04/04:00am 9.1 7.5 8.0 93 0.5 S 6 6 3 3 - - 0.0
04/03:30am 9.4 7.8 8.2 92 0.6 SSW 6 6 3 3 - - 0.0
04/03:00am 10.0 8.5 8.6 91 0.7 SSW 6 6 3 3 - - 0.0
04/02:30am 10.4 9.0 8.7 89 0.8 SSW 6 7 3 4 - - 0.0
04/02:00am 10.8 9.3 8.6 86 1.1 SSW 6 7 3 4 - - 0.0
04/01:30am 11.5 9.9 8.9 84 1.3 SSW 7 9 4 5 - - 0.0
04/01:00am 11.4 9.7 8.3 81 1.5 SSW 7 9 4 5 - - 0.0
04/12:30am 12.4 9.3 8.7 78 1.9 SSW 15 17 8 9 - - 0.0
04/12:00am 13.4 10.3 8.7 73 2.4 S 15 19 8 10 - - 0.0
 
Date/Time
EDT
Temp
°C
App
Temp
°C
Dew
Point
Rel
Hum
%
Delta-T
°C
Wind Press
QNH
hPa
Press
MSL
hPa
Rain
since 9 am
mm
Dir
 
Spd
km/h
Gust
km/h
Spd
kts
Gust
kts
03/11:30pm 13.3 10.8 8.2 71 2.6 SSW 11 13 6 7 - - 0.0
03/11:00pm 14.8 11.7 8.7 67 3.1 SSW 15 20 8 11 - - 0.0
03/10:30pm 15.4 12.4 9.1 66 3.3 S 15 19 8 10 - - 0.0
03/10:00pm 16.3 13.4 9.5 64 3.6 S 15 20 8 11 - - 0.0
03/09:30pm 17.1 14.5 9.5 61 4.0 SSW 13 20 7 11 - - 0.0
03/09:00pm 18.3 15.0 9.4 56 4.7 S 17 22 9 12 - - 0.0
03/08:30pm 19.2 16.6 9.4 53 5.3 SSE 13 19 7 10 - - 0.0
03/08:00pm 20.7 18.1 9.3 48 6.1 SSE 13 15 7 8 - - 0.0
03/07:30pm 22.7 20.1 9.5 43 7.2 SSE 13 20 7 11 - - 0.0
03/07:00pm 24.2 21.3 9.8 40 8.0 SSE 15 22 8 12 - - 0.0
03/06:30pm 25.9 23.9 10.1 37 8.9 SSE 11 17 6 9 - - 0.0
03/06:00pm 26.7 25.5 10.4 36 9.2 SE 7 13 4 7 - - 0.0
03/05:30pm 26.8 24.9 10.5 36 9.3 SE 11 19 6 10 - - 0.0
03/05:00pm 28.7 25.5 2.8 19 13.0 WSW 9 17 5 9 - - 0.0
03/04:30pm 28.5 25.7 3.4 20 12.8 WSW 7 17 4 9 - - 0.0
03/04:00pm 28.7 25.6 3.5 20 12.8 W 9 17 5 9 - - 0.0
03/03:30pm 28.4 25.5 4.6 22 12.3 W 9 24 5 13 - - 0.0

Other Formats:

Comma delimited format used in spreadsheet applications
http://www.bom.gov.au/fwo/IDV60801/IDV60801.94859.axf

JavaScript Object Notation format (JSON) in row-major order
http://www.bom.gov.au/fwo/IDV60801/IDV60801.94859.json